Thunderstorms From: 25-05-2018 15:00 Until: 26-05-2018 15:00 warning for: Thunderstorms Level: Yellow info button

Although rather usual in this region, locally or potentially dangerous phenomena are expected. (such as local winds, summer thunderstorms, rising streams or high waves) Be aware and pay attention to the latest weather updates, especially if you carry out activities exposed to weather or close to a stream or shoreline. 


Meteo18 Weather Cam more information Meteo18 Weather Cam


warning for Thunderstorms more information blitzortung!


Rain radar more information rain snow radar


Visit our other weather sites:

Template documentation
and downloads

And another site



Nearby METAR Reports

   
LFOA - Avord
Updated: 25-05-2018 16:00
Clear  
Clear  
   Wind: ESE 9.3 km/h
Wind: ESE 9.3 km/h
Temperature: 27°C
Heat Index: 27°C
Dew Point: 14°C
Humidity: 45%
Barometer: 1014 hPa
Clouds: Clear
Visibility: More than 10 km
Cloud details: Clear
LFOA 251400Z AUTO 11005KT 020V160 9999 // NCD 27/14 Q1014
LFQG - Nevers
Updated: 25-05-2018 16:00
Clear  
Clear  
   Wind: East 7.4 km/h
Wind: East 7.4 km/h
Temperature: 27°C
Heat Index: 28°C
Dew Point: 17°C
Humidity: 54%
Barometer: 1015 hPa
Visibility: More than 10 km
Cloud details: Clear
LFQG 251400Z AUTO 10004KT 040V170 CAVOK 27/17 Q1015
LFYR - Romorantin
Updated: 23-05-2018 11:00
NOT Current
Clear  
Clear  
   Wind: varies 3.7 km/h
Wind: varies 3.7 km/h
Temperature: 20°C
Dew Point: 14°C
Humidity: 69%
Barometer: 1017 hPa
Visibility: More than 10 km
Cloud details: Clear
LFYR 230900Z AUTO VRB02KT CAVOK 20/14 Q1017 BECMG SCT040TCU
LFQB - Troyes
Updated: 25-05-2018 16:00
  
  
   Wind: ENE 11.1 km/h
Wind: ENE 11.1 km/h
Temperature: 26°C
Dew Point: 15°C
Humidity: 51%
Barometer: 1016 hPa
Visibility: More than 10 km
LFQB 251400Z AUTO 06006KT 020V100 9999 ////// 26/15 Q1016
  

Script developed by  Saratoga-weather.org Adapted for the template by  Weerstation Leuven

You find our weather info also at:

European Weather Network

Weather Underground

Equipment we use:

Weather-station
Davis Vue

Weather-program
Meteobridge

Weather-server
Raspberry PI 2 B+

Provider
1 and 1

Davis Vue

Meteobridge

Raspberry PI 2 B+

1 and 1